createdAt,value
2019-03-22T00:01:03.029Z,56.21
2019-03-22T00:03:31.408Z,56.09
2019-03-22T00:05:59.799Z,56.11
2019-03-22T00:08:28.215Z,56.28
2019-03-22T00:10:56.593Z,56.16
2019-03-22T00:13:24.978Z,56.19
2019-03-22T00:15:53.381Z,56.34
2019-03-22T00:18:21.870Z,56.33
2019-03-22T00:20:50.260Z,56.47
2019-03-22T00:23:18.654Z,56.46
2019-03-22T00:25:47.035Z,56.57
2019-03-22T00:28:15.481Z,56.75
2019-03-22T00:30:43.880Z,57.01
2019-03-22T00:33:12.254Z,57.05
2019-03-22T00:35:40.635Z,57.11
2019-03-22T00:38:09.020Z,57.18
2019-03-22T00:40:37.419Z,57.12
2019-03-22T00:43:05.824Z,57.19
2019-03-22T00:45:34.265Z,57.27
2019-03-22T00:48:02.670Z,57.32
2019-03-22T00:50:31.046Z,57.33
2019-03-22T00:52:59.433Z,57.50
2019-03-22T00:55:27.837Z,57.62
2019-03-22T00:57:56.220Z,57.74
2019-03-22T01:00:24.598Z,57.74
2019-03-22T01:02:53.009Z,57.56
2019-03-22T01:05:21.408Z,57.58
2019-03-22T01:07:49.837Z,57.66
2019-03-22T01:10:18.251Z,57.81
2019-03-22T01:12:46.634Z,57.78
2019-03-22T01:15:15.563Z,57.83
2019-03-22T01:17:43.946Z,57.79
2019-03-22T01:20:13.074Z,57.71
2019-03-22T01:22:41.537Z,57.68
2019-03-22T01:25:10.763Z,57.69
2019-03-22T01:27:40.668Z,57.64
2019-03-22T01:30:14.763Z,57.74
2019-03-22T01:32:43.164Z,57.79
2019-03-22T01:35:11.622Z,58.03
2019-03-22T01:37:40.010Z,58.18
2019-03-22T01:40:10.126Z,58.24
2019-03-22T01:42:38.661Z,58.39
2019-03-22T01:45:12.171Z,58.35
2019-03-22T01:47:40.567Z,58.62
2019-03-22T01:50:16.958Z,58.67
2019-03-22T01:52:45.345Z,58.66
2019-03-22T01:55:13.822Z,58.54
2019-03-22T01:57:52.346Z,58.78
2019-03-22T02:00:14.560Z,58.91
2019-03-22T02:02:42.948Z,59.14
2019-03-22T02:05:11.415Z,59.36
2019-03-22T02:07:39.795Z,59.60
2019-03-22T02:10:10.523Z,59.74
2019-03-22T02:12:39.147Z,59.81
2019-03-22T02:15:12.134Z,59.75
2019-03-22T02:17:40.520Z,59.76
2019-03-22T02:20:10.482Z,59.69
2019-03-22T02:22:38.966Z,59.79
2019-03-22T02:25:08.424Z,60.13
2019-03-22T02:27:36.877Z,60.25
2019-03-22T02:30:11.267Z,60.65
2019-03-22T02:32:42.597Z,60.62
2019-03-22T02:35:26.934Z,60.60
2019-03-22T02:37:41.321Z,60.83
2019-03-22T02:40:11.638Z,61.02
2019-03-22T02:42:40.087Z,60.92
2019-03-22T02:45:10.939Z,60.85
2019-03-22T02:47:39.332Z,60.84
2019-03-22T02:50:18.218Z,60.77
2019-03-22T02:52:40.888Z,60.78
2019-03-22T02:55:10.320Z,60.69
2019-03-22T02:57:38.776Z,60.80
2019-03-22T03:00:12.813Z,60.75
2019-03-22T03:02:41.192Z,60.74
2019-03-22T03:05:10.517Z,60.76
2019-03-22T03:07:38.913Z,60.86
2019-03-22T03:10:10.248Z,61.12
2019-03-22T03:12:38.598Z,61.33
2019-03-22T03:15:09.814Z,61.72
2019-03-22T03:17:38.206Z,61.99
2019-03-22T03:20:09.452Z,62.05
2019-03-22T03:22:39.497Z,62.10
2019-03-22T03:25:09.417Z,62.03
2019-03-22T03:27:38.254Z,62.08
2019-03-22T03:30:15.941Z,62.18
2019-03-22T03:32:44.325Z,62.33
2019-03-22T03:35:13.156Z,62.50
2019-03-22T03:37:41.584Z,62.46
2019-03-22T03:40:11.452Z,62.42
2019-03-22T03:42:39.831Z,62.46
2019-03-22T03:45:27.865Z,62.42
2019-03-22T03:47:56.243Z,62.52
2019-03-22T03:50:24.633Z,62.80
2019-03-22T03:52:53.012Z,62.76
2019-03-22T03:55:21.411Z,63.06
2019-03-22T03:57:49.802Z,63.10
2019-03-22T04:00:18.189Z,63.12
2019-03-22T04:02:46.569Z,63.24
2019-03-22T04:05:15.008Z,63.07
2019-03-22T04:07:43.341Z,63.06
2019-03-22T04:10:11.957Z,62.98
2019-03-22T04:12:41.949Z,62.91
2019-03-22T04:15:10.573Z,62.76
2019-03-22T04:17:38.964Z,62.80
2019-03-22T04:20:07.874Z,62.94
2019-03-22T04:22:36.583Z,62.90
2019-03-22T04:25:07.174Z,62.96
2019-03-22T04:27:35.556Z,62.88
2019-03-22T04:30:05.771Z,63.13
2019-03-22T04:32:34.157Z,63.35
2019-03-22T04:35:02.673Z,63.55
2019-03-22T04:37:31.067Z,63.61
2019-03-22T04:39:59.509Z,63.90
2019-03-22T04:42:27.885Z,64.06
2019-03-22T04:44:56.267Z,64.24
2019-03-22T04:47:26.088Z,64.24
2019-03-22T04:49:55.623Z,64.22
2019-03-22T04:52:26.553Z,64.38
2019-03-22T04:54:57.971Z,64.53
2019-03-22T04:57:28.003Z,64.59
2019-03-22T04:59:58.417Z,64.65
2019-03-22T05:02:27.976Z,64.59
2019-03-22T05:04:57.022Z,64.43
2019-03-22T05:07:25.491Z,64.28
2019-03-22T05:09:54.763Z,64.30
2019-03-22T05:12:25.084Z,64.27
2019-03-22T05:14:54.415Z,64.19
2019-03-22T05:17:23.255Z,63.99
2019-03-22T05:19:54.676Z,64.04
2019-03-22T05:22:25.233Z,64.05
2019-03-22T05:24:56.159Z,64.07
2019-03-22T05:27:25.683Z,64.12
2019-03-22T05:29:56.273Z,64.03
2019-03-22T05:32:24.727Z,64.05
2019-03-22T05:34:53.115Z,63.87
2019-03-22T05:37:21.566Z,63.80
2019-03-22T05:39:49.944Z,63.69
2019-03-22T05:42:18.371Z,63.56
2019-03-22T05:44:46.757Z,63.41
2019-03-22T05:47:15.138Z,63.34
2019-03-22T05:49:43.946Z,63.50
2019-03-22T05:52:12.325Z,63.38
2019-03-22T05:54:40.711Z,63.22
2019-03-22T05:57:13.619Z,63.27
2019-03-22T05:59:42.820Z,63.01
2019-03-22T06:02:09.306Z,62.69
2019-03-22T06:04:37.688Z,62.17
2019-03-22T06:07:06.072Z,61.91
2019-03-22T06:09:34.455Z,61.53
2019-03-22T06:12:02.839Z,61.40
2019-03-22T06:14:31.298Z,61.44
2019-03-22T06:16:59.695Z,61.66
2019-03-22T06:19:28.078Z,61.77
2019-03-22T06:21:56.453Z,61.82
2019-03-22T06:24:24.847Z,61.83
2019-03-22T06:26:53.498Z,61.80
2019-03-22T06:29:21.909Z,61.97
2019-03-22T06:31:50.293Z,61.89
2019-03-22T06:34:18.727Z,61.79
2019-03-22T06:36:47.117Z,61.78
2019-03-22T06:39:15.502Z,61.56
2019-03-22T06:41:43.886Z,61.29
2019-03-22T06:44:12.279Z,61.18
2019-03-22T06:46:40.658Z,60.85
2019-03-22T06:49:28.469Z,60.69
2019-03-22T06:51:56.847Z,60.35
2019-03-22T06:54:31.517Z,60.19
2019-03-22T06:56:55.346Z,59.98
2019-03-22T06:59:23.785Z,59.86
2019-03-22T07:01:52.167Z,59.89
2019-03-22T07:04:20.559Z,59.85
2019-03-22T07:06:48.947Z,59.42
2019-03-22T07:09:17.329Z,59.03
2019-03-22T07:11:45.739Z,59.24
2019-03-22T07:14:14.129Z,59.03
2019-03-22T07:16:42.497Z,59.08
2019-03-22T07:19:10.884Z,58.73
2019-03-22T07:21:39.270Z,58.57
2019-03-22T07:24:07.712Z,58.32
2019-03-22T07:26:36.167Z,57.99
2019-03-22T07:29:04.852Z,57.97
2019-03-22T07:31:35.742Z,57.75
2019-03-22T07:34:03.376Z,57.52
2019-03-22T07:36:31.726Z,57.54
2019-03-22T07:39:00.135Z,57.30
2019-03-22T07:41:28.530Z,57.06
2019-03-22T07:43:56.930Z,56.64
2019-03-22T07:46:25.310Z,56.60
2019-03-22T07:48:55.674Z,56.46
2019-03-22T07:51:24.066Z,56.02
2019-03-22T07:53:52.435Z,55.24
2019-03-22T07:56:20.818Z,55.04
2019-03-22T07:58:49.194Z,54.70
2019-03-22T08:01:17.587Z,54.73
2019-03-22T08:03:45.966Z,54.68
2019-03-22T08:06:14.348Z,54.11
2019-03-22T08:08:42.731Z,53.52
2019-03-22T08:11:11.123Z,53.33
2019-03-22T08:13:39.503Z,53.18
2019-03-22T08:16:07.890Z,52.39
2019-03-22T08:18:36.440Z,52.62
2019-03-22T08:21:04.864Z,51.58
2019-03-22T08:23:33.249Z,51.45
2019-03-22T08:26:01.686Z,51.22
2019-03-22T08:28:30.106Z,50.74
2019-03-22T08:30:58.475Z,50.70
2019-03-22T08:33:26.845Z,49.99
2019-03-22T08:35:55.241Z,49.59
2019-03-22T08:38:23.611Z,49.54
2019-03-22T08:40:52.031Z,48.88
2019-03-22T08:43:20.379Z,49.00
2019-03-22T08:45:48.768Z,48.88
2019-03-22T08:48:17.153Z,47.64
2019-03-22T08:50:45.543Z,48.20
2019-03-22T08:53:13.924Z,47.67
2019-03-22T08:55:42.315Z,47.50
2019-03-22T08:58:10.718Z,47.41
2019-03-22T09:00:39.942Z,47.30
2019-03-22T09:03:08.520Z,47.70
2019-03-22T09:05:36.925Z,47.20
2019-03-22T09:08:05.465Z,46.98
2019-03-22T09:10:33.900Z,46.83
2019-03-22T09:13:02.261Z,45.92
2019-03-22T09:15:40.620Z,45.68
2019-03-22T09:18:00.754Z,46.24
2019-03-22T09:20:29.159Z,46.08
2019-03-22T09:22:57.555Z,46.12
2019-03-22T09:25:25.918Z,45.69
2019-03-22T09:27:54.292Z,45.62
2019-03-22T09:30:22.682Z,44.56
2019-03-22T09:32:51.121Z,44.65
2019-03-22T09:35:19.527Z,45.19
2019-03-22T09:37:47.915Z,44.53
2019-03-22T09:40:16.308Z,42.87
2019-03-22T09:42:44.677Z,43.29
2019-03-22T09:45:14.428Z,42.50
2019-03-22T09:47:42.921Z,42.86
2019-03-22T09:50:12.944Z,42.12
2019-03-22T09:52:42.618Z,41.76
2019-03-22T09:55:13.853Z,41.63
2019-03-22T09:57:41.286Z,41.35
2019-03-22T10:00:15.690Z,41.64
2019-03-22T10:02:44.020Z,41.54
2019-03-22T10:05:12.406Z,40.93
2019-03-22T10:07:40.818Z,41.29
2019-03-22T10:10:09.349Z,40.77
2019-03-22T10:12:37.709Z,41.06
2019-03-22T10:15:07.245Z,40.70
2019-03-22T10:17:35.711Z,41.15
2019-03-22T10:20:06.127Z,41.07
2019-03-22T10:22:34.529Z,41.56
2019-03-22T10:25:03.192Z,41.88
2019-03-22T10:27:31.880Z,41.20
2019-03-22T10:30:00.440Z,42.02
2019-03-22T10:32:28.771Z,42.13
2019-03-22T10:34:57.147Z,42.13
2019-03-22T10:37:25.585Z,42.35
2019-03-22T10:39:53.926Z,42.02
2019-03-22T10:42:22.334Z,42.14
2019-03-22T10:44:50.817Z,42.20
2019-03-22T10:47:19.356Z,42.12
2019-03-22T10:49:48.251Z,41.94
2019-03-22T10:52:16.772Z,41.72
2019-03-22T10:54:45.289Z,41.05
2019-03-22T10:57:13.687Z,40.42
2019-03-22T10:59:42.086Z,39.84
2019-03-22T11:02:10.827Z,40.38
2019-03-22T11:04:39.233Z,39.92
2019-03-22T11:07:07.718Z,40.12
2019-03-22T11:09:36.093Z,39.85
2019-03-22T11:12:12.071Z,40.52
2019-03-22T11:14:34.863Z,39.71
2019-03-22T11:17:03.324Z,38.96
2019-03-22T11:19:31.702Z,39.26
2019-03-22T11:22:00.096Z,39.41
2019-03-22T11:24:28.493Z,38.75
2019-03-22T11:26:56.883Z,38.97
2019-03-22T11:29:25.255Z,38.73
2019-03-22T11:31:53.663Z,38.31
2019-03-22T11:34:22.046Z,38.37
2019-03-22T11:36:50.444Z,38.33
2019-03-22T11:39:18.821Z,38.58
2019-03-22T11:41:47.239Z,38.82
2019-03-22T11:44:15.624Z,38.62
2019-03-22T11:46:44.013Z,38.13
2019-03-22T11:49:12.715Z,38.31
2019-03-22T11:51:41.096Z,38.19
2019-03-22T11:54:09.494Z,38.24
2019-03-22T11:56:37.942Z,38.43
2019-03-22T11:59:06.334Z,38.62
2019-03-22T12:01:34.727Z,38.51
2019-03-22T12:04:03.135Z,38.88
2019-03-22T12:06:31.499Z,39.40
2019-03-22T12:08:59.964Z,39.43
2019-03-22T12:11:28.348Z,39.68
2019-03-22T12:13:56.741Z,40.31
2019-03-22T12:16:25.132Z,40.53
2019-03-22T12:18:53.525Z,39.85
2019-03-22T12:21:21.990Z,39.00
2019-03-22T12:23:50.405Z,39.12
2019-03-22T12:26:18.805Z,38.92
2019-03-22T12:28:47.200Z,39.58
2019-03-22T12:31:15.628Z,38.56
2019-03-22T12:33:44.018Z,38.71
2019-03-22T12:36:12.423Z,39.17
2019-03-22T12:38:40.816Z,39.31
2019-03-22T12:41:10.252Z,39.72
2019-03-22T12:43:38.646Z,39.75
2019-03-22T12:46:07.023Z,39.56
2019-03-22T12:48:35.414Z,39.97
2019-03-22T12:51:03.871Z,40.39
2019-03-22T12:53:32.265Z,39.79
2019-03-22T12:56:00.649Z,40.38
2019-03-22T12:58:29.091Z,40.41
2019-03-22T13:00:57.480Z,40.90
2019-03-22T13:03:25.955Z,40.86
2019-03-22T13:05:54.360Z,40.72
2019-03-22T13:08:22.750Z,41.01
2019-03-22T13:10:51.136Z,40.63
2019-03-22T13:13:19.546Z,39.97
2019-03-22T13:15:47.923Z,39.66
2019-03-22T13:18:16.325Z,39.87
2019-03-22T13:20:44.721Z,40.52
2019-03-22T13:23:13.129Z,40.71
2019-03-22T13:25:41.526Z,40.97
2019-03-22T13:28:09.919Z,40.86
2019-03-22T13:30:38.381Z,41.18
2019-03-22T13:33:06.936Z,41.28
2019-03-22T13:35:35.362Z,41.17
2019-03-22T13:38:04.666Z,40.94
2019-03-22T13:40:33.131Z,40.97
2019-03-22T13:43:01.567Z,41.28
2019-03-22T13:45:30.082Z,41.14
2019-03-22T13:47:58.551Z,40.30
2019-03-22T13:50:26.951Z,40.14
2019-03-22T13:52:56.267Z,40.15
2019-03-22T13:55:24.675Z,40.44
2019-03-22T13:57:53.103Z,40.11
2019-03-22T14:00:21.672Z,39.88
2019-03-22T14:02:50.077Z,40.22
2019-03-22T14:05:18.541Z,40.55
2019-03-22T14:07:46.950Z,40.31
2019-03-22T14:10:32.954Z,39.90
2019-03-22T14:13:02.768Z,40.68
2019-03-22T14:15:31.299Z,40.77
2019-03-22T14:17:59.991Z,40.12
2019-03-22T14:20:28.468Z,40.30
2019-03-22T14:22:56.864Z,40.42
2019-03-22T14:25:25.327Z,40.30
2019-03-22T14:27:54.077Z,40.08
2019-03-22T14:30:22.471Z,40.31
2019-03-22T14:32:50.868Z,40.17
2019-03-22T14:35:19.262Z,40.08
2019-03-22T14:37:47.650Z,40.17
2019-03-22T14:40:16.193Z,40.18
2019-03-22T14:42:44.578Z,39.88
2019-03-22T14:45:13.217Z,40.58
2019-03-22T14:47:41.659Z,40.79
2019-03-22T14:50:10.307Z,40.50
2019-03-22T14:52:38.696Z,40.26
2019-03-22T14:55:07.256Z,40.55
2019-03-22T14:57:35.653Z,40.93
2019-03-22T15:00:09.961Z,40.62
2019-03-22T15:02:38.380Z,40.96
2019-03-22T15:05:07.050Z,40.51
2019-03-22T15:07:35.462Z,40.88
2019-03-22T15:10:05.096Z,40.95
2019-03-22T15:12:33.480Z,41.05
2019-03-22T15:15:15.804Z,41.09
2019-03-22T15:17:48.308Z,41.38
2019-03-22T15:20:27.415Z,41.56
2019-03-22T15:22:57.446Z,41.58
2019-03-22T15:25:39.760Z,41.13
2019-03-22T15:28:25.916Z,41.14
2019-03-22T15:31:12.268Z,41.02
2019-03-22T15:36:23.750Z,40.94
2019-03-22T15:38:56.608Z,40.91
2019-03-22T15:41:25.072Z,40.68
2019-03-22T15:43:53.500Z,40.86
2019-03-22T15:46:21.875Z,40.92
2019-03-22T15:48:50.261Z,41.17
2019-03-22T15:51:18.662Z,41.41
2019-03-22T15:53:47.055Z,41.31
2019-03-22T15:56:15.451Z,41.33
2019-03-22T15:58:43.842Z,41.38
2019-03-22T16:01:12.301Z,41.54
2019-03-22T16:03:44.349Z,41.70
2019-03-22T16:06:10.798Z,41.83
2019-03-22T16:08:39.189Z,41.78
2019-03-22T16:11:07.584Z,41.82
2019-03-22T16:13:36.086Z,41.70
2019-03-22T16:16:04.570Z,41.24
2019-03-22T16:18:32.960Z,41.55
2019-03-22T16:21:01.369Z,41.54
2019-03-22T16:23:30.717Z,41.62
2019-03-22T16:25:59.100Z,41.45
2019-03-22T16:28:27.496Z,41.73
2019-03-22T16:30:55.885Z,42.06
2019-03-22T16:33:24.278Z,42.03
2019-03-22T16:35:52.684Z,41.88
2019-03-22T16:38:21.076Z,42.16
2019-03-22T16:40:49.479Z,42.48
2019-03-22T16:43:17.865Z,42.79
2019-03-22T16:45:46.254Z,42.76
2019-03-22T16:48:14.649Z,43.07
2019-03-22T16:50:43.098Z,43.20
2019-03-22T16:53:11.552Z,43.18
2019-03-22T16:55:40.010Z,43.18
2019-03-22T16:58:08.517Z,43.29
2019-03-22T17:00:37.039Z,43.59
2019-03-22T17:03:06.688Z,43.99
2019-03-22T17:05:35.209Z,44.10
2019-03-22T17:08:03.650Z,44.13
2019-03-22T17:10:32.031Z,44.11
2019-03-22T17:13:00.416Z,44.19
2019-03-22T17:15:28.816Z,44.54
2019-03-22T17:17:57.213Z,44.79
2019-03-22T17:20:25.595Z,44.89
2019-03-22T17:22:53.991Z,45.30
2019-03-22T17:25:22.371Z,45.44
2019-03-22T17:27:50.756Z,46.29
2019-03-22T17:30:19.415Z,47.10
2019-03-22T17:32:47.817Z,46.95
2019-03-22T17:35:16.272Z,46.93
2019-03-22T17:37:44.658Z,47.03
2019-03-22T17:40:13.454Z,47.26
2019-03-22T17:42:41.842Z,47.38
2019-03-22T17:45:13.227Z,47.53
2019-03-22T17:47:41.684Z,47.70
2019-03-22T17:50:12.513Z,48.23
2019-03-22T17:52:40.898Z,48.68
2019-03-22T17:55:10.609Z,48.93
2019-03-22T17:57:39.053Z,49.28
2019-03-22T18:00:10.092Z,49.03
2019-03-22T18:02:39.473Z,48.88
2019-03-22T18:05:10.012Z,48.82
2019-03-22T18:07:38.467Z,48.87
2019-03-22T18:10:12.160Z,49.16
2019-03-22T18:12:40.562Z,49.31
2019-03-22T18:15:13.047Z,49.40
2019-03-22T18:17:44.674Z,49.36
2019-03-22T18:20:14.887Z,49.87
2019-03-22T18:22:43.261Z,49.97
2019-03-22T18:25:11.918Z,49.93
2019-03-22T18:27:40.303Z,49.17
2019-03-22T18:30:17.781Z,48.66
2019-03-22T18:32:47.693Z,49.01
2019-03-22T18:35:16.295Z,49.19
2019-03-22T18:37:45.640Z,49.43
2019-03-22T18:40:15.426Z,49.63
2019-03-22T18:42:43.834Z,49.94
2019-03-22T18:45:13.830Z,50.07
2019-03-22T18:47:43.171Z,50.36
2019-03-22T18:50:12.599Z,50.69
2019-03-22T18:52:40.979Z,51.21
2019-03-22T18:55:09.545Z,51.33
2019-03-22T18:57:37.941Z,51.38
2019-03-22T19:00:12.026Z,51.57
2019-03-22T19:02:40.418Z,51.81
2019-03-22T19:05:09.066Z,51.94
2019-03-22T19:07:37.456Z,52.00
2019-03-22T19:10:08.773Z,52.24
2019-03-22T19:12:37.186Z,52.37
2019-03-22T19:15:09.121Z,52.18
2019-03-22T19:17:37.645Z,52.20
2019-03-22T19:20:09.928Z,52.44
2019-03-22T19:22:38.374Z,52.55
2019-03-22T19:25:07.902Z,53.08
2019-03-22T19:27:36.322Z,53.19
2019-03-22T19:30:07.526Z,53.30
2019-03-22T19:32:35.955Z,53.22
2019-03-22T19:35:06.079Z,53.36
2019-03-22T19:37:34.469Z,53.52
2019-03-22T19:40:03.334Z,53.54
2019-03-22T19:42:31.730Z,53.81
2019-03-22T19:45:00.161Z,53.89
2019-03-22T19:47:28.679Z,54.10
2019-03-22T19:49:57.068Z,54.21
2019-03-22T19:52:25.466Z,54.41
2019-03-22T19:54:53.903Z,54.51
2019-03-22T19:57:22.300Z,54.69
2019-03-22T19:59:50.709Z,54.74
2019-03-22T20:02:19.178Z,55.25
2019-03-22T20:04:53.392Z,55.23
2019-03-22T20:07:27.080Z,55.19
2019-03-22T20:09:53.196Z,55.23
2019-03-22T20:12:21.579Z,55.40
2019-03-22T20:14:49.979Z,55.53
2019-03-22T20:17:18.387Z,55.61
2019-03-22T20:19:46.788Z,55.88
2019-03-22T20:22:15.184Z,55.98
2019-03-22T20:24:43.571Z,56.13
2019-03-22T20:27:11.971Z,56.31
2019-03-22T20:29:40.354Z,56.42
2019-03-22T20:32:08.745Z,56.71
2019-03-22T20:34:37.152Z,56.72
2019-03-22T20:37:05.538Z,56.89
2019-03-22T20:39:36.957Z,57.06
2019-03-22T20:42:05.361Z,57.26
2019-03-22T20:44:34.349Z,57.82
2019-03-22T20:47:02.828Z,57.85
2019-03-22T20:49:31.226Z,57.77
2019-03-22T20:51:59.607Z,57.68
2019-03-22T20:54:27.988Z,57.76
2019-03-22T20:56:56.382Z,58.02
2019-03-22T20:59:24.765Z,58.18
2019-03-22T21:01:53.162Z,58.30
2019-03-22T21:04:21.560Z,58.38
2019-03-22T21:06:50.860Z,58.55
2019-03-22T21:09:19.253Z,58.75
2019-03-22T21:11:47.660Z,58.92
2019-03-22T21:14:16.058Z,58.96
2019-03-22T21:16:44.461Z,58.96
2019-03-22T21:19:12.842Z,59.07
2019-03-22T21:21:41.228Z,59.31
2019-03-22T21:24:09.610Z,59.51
2019-03-22T21:26:38.875Z,59.45
2019-03-22T21:29:07.265Z,59.46
2019-03-22T21:31:35.663Z,59.68
2019-03-22T21:34:05.111Z,59.83
2019-03-22T21:36:34.472Z,59.84
2019-03-22T21:39:04.242Z,59.94
2019-03-22T21:41:32.637Z,59.91
2019-03-22T21:44:01.042Z,59.88
2019-03-22T21:46:29.435Z,59.78
2019-03-22T21:48:58.745Z,59.88
2019-03-22T21:51:27.118Z,60.03
2019-03-22T21:53:55.491Z,60.23
2019-03-22T21:56:23.874Z,60.33
2019-03-22T21:58:54.188Z,60.35
2019-03-22T22:01:22.573Z,60.38
2019-03-22T22:03:50.954Z,60.42
2019-03-22T22:06:19.342Z,60.60
2019-03-22T22:08:47.728Z,60.78
2019-03-22T22:11:16.109Z,60.99
2019-03-22T22:13:44.504Z,61.02
2019-03-22T22:16:13.858Z,61.13
2019-03-22T22:18:42.244Z,61.40
2019-03-22T22:21:10.624Z,61.23
2019-03-22T22:23:39.946Z,61.31
2019-03-22T22:26:09.379Z,61.53
2019-03-22T22:28:37.698Z,61.49
2019-03-22T22:31:06.360Z,61.53
2019-03-22T22:33:35.652Z,61.69
2019-03-22T22:36:04.157Z,62.10
2019-03-22T22:38:32.548Z,62.11
2019-03-22T22:41:00.939Z,62.21
2019-03-22T22:43:30.257Z,62.46
2019-03-22T22:45:58.643Z,62.51
2019-03-22T22:48:27.030Z,62.56
2019-03-22T22:50:55.435Z,62.63
2019-03-22T22:53:23.817Z,62.68
2019-03-22T22:55:52.203Z,62.87
2019-03-22T22:58:20.593Z,62.76
2019-03-22T23:00:49.151Z,62.88
2019-03-22T23:03:17.613Z,63.06
2019-03-22T23:05:46.004Z,63.21
2019-03-22T23:08:14.388Z,63.25
2019-03-22T23:10:42.780Z,63.31
2019-03-22T23:13:11.199Z,63.46
2019-03-22T23:15:39.602Z,63.51
2019-03-22T23:18:07.981Z,63.25
2019-03-22T23:20:36.375Z,63.39
2019-03-22T23:23:04.772Z,63.58
2019-03-22T23:25:33.157Z,63.70
2019-03-22T23:28:01.558Z,63.91
2019-03-22T23:30:29.944Z,64.12
2019-03-22T23:32:58.351Z,64.25
2019-03-22T23:35:26.763Z,64.35
2019-03-22T23:37:55.148Z,64.42
2019-03-22T23:40:23.544Z,64.48
2019-03-22T23:42:51.927Z,64.46
2019-03-22T23:45:20.320Z,64.43
2019-03-22T23:47:48.863Z,64.63
2019-03-22T23:50:17.255Z,64.80
2019-03-22T23:52:45.635Z,64.93
2019-03-22T23:55:14.093Z,65.01
2019-03-22T23:57:42.418Z,64.97
